createdAt,value
2023-04-19T00:02:34.451Z,80.55
2023-04-19T00:05:09.326Z,80.25
2023-04-19T00:07:42.280Z,80.52
2023-04-19T00:10:22.896Z,80.72
2023-04-19T00:12:53.450Z,80.54
2023-04-19T00:15:24.306Z,80.83
2023-04-19T00:17:57.628Z,80.72
2023-04-19T00:20:42.921Z,80.69
2023-04-19T00:23:32.558Z,80.57
2023-04-19T00:26:06.919Z,80.49
2023-04-19T00:28:37.753Z,80.78
2023-04-19T00:31:08.467Z,80.51
2023-04-19T00:33:39.166Z,80.60
2023-04-19T00:36:10.975Z,80.74
2023-04-19T00:38:42.821Z,81.03
2023-04-19T00:41:15.033Z,80.81
2023-04-19T00:44:02.175Z,81.15
2023-04-19T00:46:32.715Z,81.05
2023-04-19T00:49:05.954Z,80.75
2023-04-19T00:51:36.949Z,81.02
2023-04-19T00:54:09.084Z,81.01
2023-04-19T00:56:39.776Z,81.05
2023-04-19T00:59:10.475Z,80.71
2023-04-19T01:02:01.731Z,80.96
2023-04-19T01:04:44.896Z,80.79
2023-04-19T01:07:16.718Z,80.72
2023-04-19T01:09:50.271Z,80.80
2023-04-19T01:12:28.595Z,80.79
2023-04-19T01:15:19.321Z,81.17
2023-04-19T01:17:53.909Z,81.30
2023-04-19T01:20:33.449Z,80.88
2023-04-19T01:23:12.605Z,80.86
2023-04-19T01:25:53.472Z,81.17
2023-04-19T01:28:25.612Z,81.02
2023-04-19T01:30:58.439Z,81.02
2023-04-19T01:33:49.169Z,81.15
2023-04-19T01:36:34.282Z,81.32
2023-04-19T01:39:07.735Z,81.22
2023-04-19T01:41:38.230Z,81.11
2023-04-19T01:44:29.190Z,81.19
2023-04-19T01:47:10.913Z,81.25
2023-04-19T01:49:44.543Z,81.23
2023-04-19T01:52:15.027Z,81.41
2023-04-19T01:54:48.094Z,81.19
2023-04-19T01:57:32.789Z,81.68
2023-04-19T02:00:04.448Z,81.39
2023-04-19T02:02:44.877Z,81.32
2023-04-19T02:05:15.851Z,81.38
2023-04-19T02:07:46.714Z,81.55
2023-04-19T02:10:19.786Z,81.58
2023-04-19T02:12:52.849Z,81.55
2023-04-19T02:15:23.438Z,81.53
2023-04-19T02:17:57.326Z,81.22
2023-04-19T02:20:31.370Z,81.83
2023-04-19T02:23:01.839Z,81.70
2023-04-19T02:25:35.070Z,81.76
2023-04-19T02:28:05.722Z,82.08
2023-04-19T02:30:41.303Z,81.72
2023-04-19T02:33:17.248Z,81.76
2023-04-19T02:35:52.810Z,82.04
2023-04-19T02:38:31.009Z,81.85
2023-04-19T02:41:04.408Z,82.12
2023-04-19T02:43:35.092Z,82.23
2023-04-19T02:46:08.165Z,82.21
2023-04-19T02:48:48.141Z,82.31
2023-04-19T02:51:21.807Z,82.46
2023-04-19T02:54:03.534Z,82.19
2023-04-19T02:56:34.739Z,82.17
2023-04-19T02:59:18.532Z,82.32
2023-04-19T03:02:09.198Z,82.43
2023-04-19T03:04:43.358Z,82.26
2023-04-19T03:07:14.354Z,82.61
2023-04-19T03:09:45.201Z,82.61
2023-04-19T03:12:15.940Z,82.51
2023-04-19T03:14:49.379Z,82.29
2023-04-19T03:17:20.143Z,82.46
2023-04-19T03:20:07.962Z,82.59
2023-04-19T03:22:41.734Z,82.65
2023-04-19T03:25:13.566Z,82.74
2023-04-19T03:27:57.313Z,82.76
2023-04-19T03:30:45.804Z,82.80
2023-04-19T03:33:19.631Z,83.07
2023-04-19T03:36:04.206Z,83.06
2023-04-19T03:38:39.158Z,82.91
2023-04-19T03:41:21.906Z,82.99
2023-04-19T03:43:55.423Z,83.22
2023-04-19T03:46:28.142Z,83.40
2023-04-19T03:49:10.956Z,83.35
2023-04-19T03:51:50.844Z,83.60
2023-04-19T03:54:22.506Z,83.78
2023-04-19T03:56:53.073Z,84.50
2023-04-19T03:59:31.829Z,84.41
2023-04-19T04:02:07.039Z,84.16
2023-04-19T04:04:36.444Z,84.59
2023-04-19T04:07:17.693Z,84.83
2023-04-19T04:09:59.447Z,84.90
2023-04-19T04:12:50.220Z,85.62
2023-04-19T04:15:28.179Z,86.07
2023-04-19T04:18:09.310Z,86.56
2023-04-19T04:20:44.491Z,87.79
2023-04-19T04:23:16.569Z,88.17
2023-04-19T04:26:02.599Z,88.24
2023-04-19T04:28:56.513Z,88.24
2023-04-19T04:31:38.555Z,88.44
2023-04-19T04:34:20.519Z,89.00
2023-04-19T04:37:11.839Z,88.91
2023-04-19T04:39:46.012Z,89.23
2023-04-19T04:42:37.899Z,89.50
2023-04-19T04:45:13.072Z,89.88
2023-04-19T04:47:47.940Z,90.15
2023-04-19T04:50:31.448Z,90.24
2023-04-19T04:53:11.084Z,90.37
2023-04-19T04:55:53.798Z,89.94
2023-04-19T04:58:39.115Z,89.96
2023-04-19T05:01:26.415Z,90.01
2023-04-19T05:03:57.357Z,90.38
2023-04-19T05:06:48.140Z,90.39
2023-04-19T05:09:23.895Z,90.34
2023-04-19T05:12:03.934Z,89.83
2023-04-19T05:14:48.496Z,90.05
2023-04-19T05:17:39.298Z,89.87
2023-04-19T05:20:12.168Z,90.07
2023-04-19T05:23:03.541Z,90.02
2023-04-19T05:25:50.634Z,89.78
2023-04-19T05:28:41.301Z,89.32
2023-04-19T05:31:31.195Z,89.41
2023-04-19T05:34:25.127Z,89.52
2023-04-19T05:37:10.575Z,90.03
2023-04-19T05:39:45.535Z,90.09
2023-04-19T05:42:36.540Z,89.95
2023-04-19T05:45:11.581Z,89.90
2023-04-19T05:47:43.110Z,90.25
2023-04-19T05:50:33.330Z,90.17
2023-04-19T05:53:23.143Z,89.93
2023-04-19T05:55:54.931Z,90.52
2023-04-19T05:58:28.744Z,89.89
2023-04-19T06:01:00.041Z,90.03
2023-04-19T06:03:32.365Z,89.98
2023-04-19T06:06:15.213Z,90.12
2023-04-19T06:08:44.742Z,90.11
2023-04-19T06:11:26.945Z,89.39
2023-04-19T06:14:09.997Z,89.23
2023-04-19T06:17:01.915Z,89.26
2023-04-19T06:19:44.431Z,88.57
2023-04-19T06:22:34.094Z,88.66
2023-04-19T06:25:06.123Z,88.13
2023-04-19T06:27:36.678Z,87.40
2023-04-19T06:30:11.948Z,86.45
2023-04-19T06:32:42.546Z,85.72
2023-04-19T06:35:15.854Z,85.61
2023-04-19T06:37:56.714Z,85.54
2023-04-19T06:40:30.283Z,85.03
2023-04-19T06:43:03.200Z,83.97
2023-04-19T06:45:38.969Z,80.79
2023-04-19T06:48:09.738Z,80.32
2023-04-19T06:50:50.413Z,79.93
2023-04-19T06:53:21.038Z,80.06
2023-04-19T06:55:54.811Z,80.63
2023-04-19T06:58:30.134Z,79.90
2023-04-19T07:01:02.071Z,79.94
2023-04-19T07:03:36.341Z,79.25
2023-04-19T07:06:05.912Z,79.03
2023-04-19T07:08:48.838Z,79.09
2023-04-19T07:11:22.332Z,79.97
2023-04-19T07:13:53.901Z,80.43
2023-04-19T07:16:23.381Z,81.41
2023-04-19T07:18:54.474Z,81.08
2023-04-19T07:21:30.403Z,81.23
2023-04-19T07:24:10.447Z,79.18
2023-04-19T07:26:40.834Z,79.38
2023-04-19T07:29:13.861Z,78.48
2023-04-19T07:31:44.478Z,78.66
2023-04-19T07:34:15.464Z,78.59
2023-04-19T07:36:46.432Z,78.10
2023-04-19T07:39:17.238Z,78.28
2023-04-19T07:41:48.054Z,78.53
2023-04-19T07:44:21.239Z,78.63
2023-04-19T07:46:52.891Z,78.68
2023-04-19T07:49:26.532Z,78.89
2023-04-19T07:52:11.281Z,77.14
2023-04-19T07:54:41.844Z,76.74
2023-04-19T07:57:12.510Z,77.01
2023-04-19T07:59:43.388Z,77.36
2023-04-19T08:02:14.247Z,77.13
2023-04-19T08:04:48.400Z,77.54
2023-04-19T08:07:19.296Z,77.41
2023-04-19T08:09:50.057Z,76.62
2023-04-19T08:15:06.675Z,76.67
2023-04-19T08:17:46.094Z,76.16
2023-04-19T08:20:17.794Z,76.16
2023-04-19T08:22:48.350Z,75.93
2023-04-19T08:25:26.719Z,75.20
2023-04-19T08:27:58.195Z,75.41
2023-04-19T08:30:28.845Z,74.98
2023-04-19T08:32:59.459Z,74.49
2023-04-19T08:35:30.339Z,74.44
2023-04-19T08:38:02.588Z,73.72
2023-04-19T08:40:34.557Z,73.17
2023-04-19T08:43:09.101Z,73.26
2023-04-19T08:45:40.479Z,73.12
2023-04-19T08:48:11.693Z,72.73
2023-04-19T08:50:56.023Z,72.68
2023-04-19T08:53:34.263Z,73.48
2023-04-19T08:56:21.174Z,73.49
2023-04-19T08:59:15.640Z,72.60
2023-04-19T09:01:48.928Z,70.75
2023-04-19T09:04:34.514Z,71.21
2023-04-19T09:07:08.285Z,71.52
2023-04-19T09:09:55.612Z,72.06
2023-04-19T09:12:32.944Z,71.12
2023-04-19T09:15:05.287Z,71.55
2023-04-19T09:17:36.377Z,71.68
2023-04-19T09:20:10.520Z,71.20
2023-04-19T09:23:07.635Z,71.40
2023-04-19T09:25:59.327Z,70.89
2023-04-19T09:28:30.452Z,71.57
2023-04-19T09:31:33.190Z,70.45
2023-04-19T09:34:15.590Z,70.25
2023-04-19T09:36:46.878Z,69.43
2023-04-19T09:39:31.785Z,70.20
2023-04-19T09:42:02.275Z,71.27
2023-04-19T09:45:06.012Z,70.68
2023-04-19T09:47:30.062Z,71.85
2023-04-19T09:50:22.567Z,72.26
2023-04-19T09:52:55.596Z,72.51
2023-04-19T09:55:29.517Z,72.57
2023-04-19T09:58:09.744Z,73.05
2023-04-19T10:00:48.802Z,73.43
2023-04-19T10:03:29.365Z,74.27
2023-04-19T10:06:04.294Z,74.89
2023-04-19T10:08:41.249Z,75.17
2023-04-19T10:11:47.898Z,75.45
2023-04-19T10:14:07.720Z,75.03
2023-04-19T10:16:41.297Z,75.37
2023-04-19T10:19:12.134Z,75.61
2023-04-19T10:21:46.502Z,75.79
2023-04-19T10:24:28.473Z,74.53
2023-04-19T10:27:15.058Z,73.55
2023-04-19T10:30:05.067Z,72.97
2023-04-19T10:32:59.513Z,71.36
2023-04-19T10:35:35.966Z,70.35
2023-04-19T10:38:12.533Z,70.96
2023-04-19T10:41:01.386Z,70.72
2023-04-19T10:43:34.268Z,70.87
2023-04-19T10:46:10.003Z,70.75
2023-04-19T10:48:56.478Z,70.62
2023-04-19T10:51:30.000Z,69.55
2023-04-19T10:54:04.596Z,68.93
2023-04-19T10:57:04.658Z,66.85
2023-04-19T10:59:36.744Z,64.91
2023-04-19T11:02:28.818Z,62.86
2023-04-19T11:05:04.599Z,63.09
2023-04-19T11:07:45.249Z,63.31
2023-04-19T11:10:28.658Z,61.62
2023-04-19T11:12:59.378Z,60.39
2023-04-19T11:15:29.905Z,59.46
2023-04-19T11:18:12.089Z,59.87
2023-04-19T11:20:45.183Z,59.02
2023-04-19T11:23:19.857Z,59.20
2023-04-19T11:25:53.546Z,59.31
2023-04-19T11:28:24.172Z,57.09
2023-04-19T11:30:55.777Z,54.97
2023-04-19T11:33:27.255Z,53.97
2023-04-19T11:35:57.675Z,53.57
2023-04-19T11:38:30.193Z,53.00
2023-04-19T11:41:05.304Z,53.87
2023-04-19T11:43:39.391Z,52.82
2023-04-19T11:46:11.663Z,52.75
2023-04-19T11:48:53.188Z,51.44
2023-04-19T11:51:23.797Z,50.73
2023-04-19T11:53:54.320Z,49.80
2023-04-19T11:56:24.841Z,50.98
2023-04-19T11:59:00.102Z,50.60
2023-04-19T12:01:32.431Z,51.10
2023-04-19T12:04:06.310Z,52.19
2023-04-19T12:06:36.987Z,50.69
2023-04-19T12:09:10.197Z,50.18
2023-04-19T12:11:50.102Z,49.53
2023-04-19T12:14:22.885Z,49.18
2023-04-19T12:17:11.518Z,47.62
2023-04-19T12:19:47.177Z,46.75
2023-04-19T12:22:21.082Z,47.03
2023-04-19T12:24:54.422Z,48.42
2023-04-19T12:27:25.761Z,45.77
2023-04-19T12:29:57.238Z,45.10
2023-04-19T12:32:27.840Z,45.76
2023-04-19T12:34:58.516Z,45.20
2023-04-19T12:37:29.157Z,44.41
2023-04-19T12:39:59.639Z,47.19
2023-04-19T12:42:30.022Z,44.46
2023-04-19T12:45:01.256Z,41.81
2023-04-19T12:47:30.838Z,40.91
2023-04-19T12:50:01.910Z,41.12
2023-04-19T12:52:30.969Z,41.09
2023-04-19T12:55:01.314Z,41.74
2023-04-19T12:57:31.694Z,41.78
2023-04-19T13:00:02.253Z,41.50
2023-04-19T13:02:34.912Z,39.58
2023-04-19T13:05:06.350Z,38.45
2023-04-19T13:07:35.624Z,39.52
2023-04-19T13:10:07.223Z,41.64
2023-04-19T13:12:38.461Z,41.39
2023-04-19T13:15:11.213Z,41.38
2023-04-19T13:17:41.655Z,39.60
2023-04-19T13:20:14.008Z,40.47
2023-04-19T13:22:44.367Z,40.76
2023-04-19T13:25:14.722Z,39.00
2023-04-19T13:27:47.022Z,39.08
2023-04-19T13:30:18.389Z,37.83
2023-04-19T13:32:49.055Z,37.80
2023-04-19T13:35:19.749Z,37.36
2023-04-19T13:37:51.151Z,37.72
2023-04-19T13:40:21.693Z,38.09
2023-04-19T13:42:53.090Z,37.62
2023-04-19T13:45:23.599Z,37.72
2023-04-19T13:47:54.236Z,36.30
2023-04-19T13:50:24.915Z,36.94
2023-04-19T13:52:55.441Z,39.47
2023-04-19T13:55:25.955Z,36.53
2023-04-19T13:57:56.362Z,36.00
2023-04-19T14:00:27.310Z,35.57
2023-04-19T14:02:58.357Z,34.57
2023-04-19T14:05:27.348Z,35.05
2023-04-19T14:07:58.012Z,35.01
2023-04-19T14:10:29.522Z,35.82
2023-04-19T14:13:00.122Z,34.13
2023-04-19T14:15:30.590Z,35.44
2023-04-19T14:18:01.551Z,34.23
2023-04-19T14:20:32.033Z,35.73
2023-04-19T14:23:02.791Z,35.21
2023-04-19T14:25:33.266Z,36.39
2023-04-19T14:28:03.829Z,35.36
2023-04-19T14:30:34.324Z,34.48
2023-04-19T14:33:05.007Z,34.58
2023-04-19T14:35:35.665Z,35.33
2023-04-19T14:38:06.405Z,33.18
2023-04-19T14:40:37.012Z,33.10
2023-04-19T14:43:08.034Z,33.16
2023-04-19T14:45:37.371Z,32.89
2023-04-19T14:48:08.291Z,33.22
2023-04-19T14:50:38.632Z,32.02
2023-04-19T14:53:09.766Z,30.25
2023-04-19T14:55:40.965Z,29.27
2023-04-19T14:58:09.847Z,29.62
2023-04-19T15:00:40.203Z,30.04
2023-04-19T15:03:11.354Z,29.57
2023-04-19T15:05:42.221Z,28.31
2023-04-19T15:08:27.203Z,29.49
2023-04-19T15:11:00.361Z,28.82
2023-04-19T15:13:30.862Z,28.66
2023-04-19T15:16:03.200Z,28.02
2023-04-19T15:18:33.937Z,27.36
2023-04-19T15:21:05.561Z,26.37
2023-04-19T15:23:36.205Z,26.02
2023-04-19T15:26:06.910Z,26.13
2023-04-19T15:28:38.334Z,24.84
2023-04-19T15:31:10.379Z,23.87
2023-04-19T15:33:41.105Z,24.78
2023-04-19T15:36:11.825Z,26.08
2023-04-19T15:38:43.945Z,25.48
2023-04-19T15:41:14.850Z,25.27
2023-04-19T15:43:45.337Z,24.77
2023-04-19T15:46:16.546Z,25.88
2023-04-19T15:48:48.584Z,24.30
2023-04-19T15:51:19.181Z,25.32
2023-04-19T15:53:49.641Z,26.22
2023-04-19T15:56:20.003Z,27.20
2023-04-19T15:58:50.379Z,27.09
2023-04-19T16:01:22.863Z,26.66
2023-04-19T16:03:53.910Z,26.61
2023-04-19T16:06:23.318Z,28.15
2023-04-19T16:08:53.698Z,27.29
2023-04-19T16:11:24.483Z,27.04
2023-04-19T16:13:55.206Z,26.87
2023-04-19T16:16:26.930Z,26.79
2023-04-19T16:18:57.842Z,27.49
2023-04-19T16:21:28.952Z,27.09
2023-04-19T16:24:00.733Z,27.39
2023-04-19T16:26:31.253Z,28.01
2023-04-19T16:29:02.012Z,28.37
2023-04-19T16:31:32.659Z,28.24
2023-04-19T16:34:03.066Z,29.40
2023-04-19T16:36:33.539Z,28.62
2023-04-19T16:39:04.170Z,28.65
2023-04-19T16:41:34.833Z,28.77
2023-04-19T16:44:05.671Z,29.20
2023-04-19T16:46:39.381Z,29.05
2023-04-19T16:49:12.521Z,29.02
2023-04-19T16:51:46.147Z,29.02
2023-04-19T16:54:16.876Z,29.96
2023-04-19T16:56:47.327Z,30.47
2023-04-19T16:59:26.747Z,30.72
2023-04-19T17:02:01.397Z,31.52
2023-04-19T17:04:33.637Z,31.35
2023-04-19T17:07:04.513Z,31.28
2023-04-19T17:09:35.343Z,31.85
2023-04-19T17:12:07.110Z,32.09
2023-04-19T17:14:38.002Z,32.57
2023-04-19T17:17:08.527Z,32.51
2023-04-19T17:19:48.310Z,32.12
2023-04-19T17:22:21.413Z,32.87
2023-04-19T17:24:57.492Z,32.86
2023-04-19T17:27:39.039Z,32.88
2023-04-19T17:30:28.393Z,33.57
2023-04-19T17:32:59.280Z,33.94
2023-04-19T17:35:30.238Z,34.14
2023-04-19T17:38:06.503Z,34.60
2023-04-19T17:40:37.146Z,34.47
2023-04-19T17:43:08.655Z,34.96
2023-04-19T17:45:40.285Z,34.89
2023-04-19T17:48:10.813Z,34.99
2023-04-19T17:50:41.397Z,35.41
2023-04-19T17:53:11.924Z,35.18
2023-04-19T17:56:03.013Z,36.02
2023-04-19T17:58:53.692Z,36.30
2023-04-19T18:01:24.569Z,36.39
2023-04-19T18:03:57.542Z,36.89
2023-04-19T18:06:48.605Z,37.56
2023-04-19T18:09:19.451Z,37.71
2023-04-19T18:11:57.972Z,38.31
2023-04-19T18:14:31.223Z,38.12
2023-04-19T18:17:02.204Z,38.56
2023-04-19T18:19:37.431Z,38.73
2023-04-19T18:22:07.973Z,39.15
2023-04-19T18:24:38.527Z,39.41
2023-04-19T18:27:09.303Z,40.03
2023-04-19T18:29:39.934Z,39.91
2023-04-19T18:32:10.790Z,39.86
2023-04-19T18:34:52.682Z,40.06
2023-04-19T18:37:23.289Z,40.36
2023-04-19T18:39:53.859Z,40.87
2023-04-19T18:42:24.620Z,40.43
2023-04-19T18:44:57.653Z,40.62
2023-04-19T18:47:29.781Z,40.59
2023-04-19T18:50:15.437Z,41.06
2023-04-19T18:52:52.605Z,40.60
2023-04-19T18:55:27.551Z,40.67
2023-04-19T18:58:01.233Z,40.99
2023-04-19T19:00:53.220Z,41.16
2023-04-19T19:06:27.601Z,41.74
2023-04-19T19:09:09.602Z,41.95
2023-04-19T19:11:56.206Z,42.36
2023-04-19T19:14:35.714Z,42.11
2023-04-19T19:17:17.433Z,42.34
2023-04-19T19:20:10.787Z,43.35
2023-04-19T19:22:54.842Z,43.59
2023-04-19T19:25:27.174Z,43.76
2023-04-19T19:28:06.999Z,44.23
2023-04-19T19:30:49.718Z,44.23
2023-04-19T19:33:21.365Z,44.91
2023-04-19T19:35:54.961Z,44.76
2023-04-19T19:38:25.867Z,45.09
2023-04-19T19:43:50.529Z,45.33
2023-04-19T19:46:24.233Z,45.64
2023-04-19T19:48:57.423Z,45.75
2023-04-19T19:51:53.149Z,46.18
2023-04-19T19:54:23.529Z,46.38
2023-04-19T19:57:31.744Z,46.30
2023-04-19T20:00:32.010Z,47.33
2023-04-19T20:03:02.123Z,47.16
2023-04-19T20:05:35.719Z,47.71
2023-04-19T20:08:12.058Z,48.47
2023-04-19T20:10:44.252Z,49.36
2023-04-19T20:13:15.190Z,50.16
2023-04-19T20:15:47.310Z,50.60
2023-04-19T20:18:20.119Z,51.20
2023-04-19T20:20:54.078Z,51.44
2023-04-19T20:23:27.026Z,52.29
2023-04-19T20:25:59.906Z,52.81
2023-04-19T20:28:41.663Z,52.73
2023-04-19T20:31:14.624Z,53.20
2023-04-19T20:33:47.831Z,53.31
2023-04-19T20:36:28.478Z,53.45
2023-04-19T20:39:06.062Z,53.67
2023-04-19T20:41:37.450Z,53.24
2023-04-19T20:44:08.310Z,53.19
2023-04-19T20:46:59.314Z,52.75
2023-04-19T20:49:29.995Z,52.55
2023-04-19T20:52:20.841Z,52.44
2023-04-19T20:55:01.920Z,52.61
2023-04-19T20:57:32.387Z,52.50
2023-04-19T21:00:08.582Z,52.57
2023-04-19T21:02:42.267Z,52.42
2023-04-19T21:05:13.167Z,52.31
2023-04-19T21:07:46.286Z,52.15
2023-04-19T21:10:22.074Z,52.44
2023-04-19T21:13:06.466Z,52.52
2023-04-19T21:15:37.492Z,52.42
2023-04-19T21:18:08.165Z,52.97
2023-04-19T21:20:39.496Z,53.00
2023-04-19T21:23:12.401Z,53.24
2023-04-19T21:25:53.080Z,53.56
2023-04-19T21:28:26.938Z,53.33
2023-04-19T21:30:58.545Z,53.60
2023-04-19T21:33:29.099Z,53.61
2023-04-19T21:36:10.436Z,53.99
2023-04-19T21:38:43.948Z,54.33
2023-04-19T21:41:14.449Z,54.33
2023-04-19T21:43:47.522Z,54.60
2023-04-19T21:46:33.376Z,54.92
2023-04-19T21:49:06.641Z,55.41
2023-04-19T21:51:45.553Z,55.99
2023-04-19T21:54:30.651Z,55.87
2023-04-19T21:57:06.981Z,56.21
2023-04-19T21:59:39.882Z,56.23
2023-04-19T22:02:21.041Z,56.35
2023-04-19T22:04:54.933Z,56.95
2023-04-19T22:07:30.304Z,57.07
2023-04-19T22:10:12.258Z,57.50
2023-04-19T22:12:54.984Z,57.74
2023-04-19T22:15:48.315Z,57.88
2023-04-19T22:18:19.162Z,58.03
2023-04-19T22:21:11.076Z,58.31
2023-04-19T22:24:01.810Z,57.79
2023-04-19T22:26:43.691Z,57.45
2023-04-19T22:29:23.195Z,57.32
2023-04-19T22:31:53.623Z,57.71
2023-04-19T22:34:44.449Z,57.76
2023-04-19T22:37:25.570Z,57.91
2023-04-19T22:40:12.046Z,58.40
2023-04-19T22:42:42.848Z,58.09
2023-04-19T22:45:16.063Z,58.45
2023-04-19T22:47:46.807Z,58.57
2023-04-19T22:50:28.591Z,58.93
2023-04-19T22:53:19.394Z,59.05
2023-04-19T22:55:53.063Z,59.44
2023-04-19T22:58:23.701Z,59.76
2023-04-19T23:01:04.724Z,59.84
2023-04-19T23:03:38.453Z,59.89
2023-04-19T23:06:30.218Z,59.89
2023-04-19T23:09:21.036Z,60.21
2023-04-19T23:11:51.736Z,60.72
2023-04-19T23:14:22.367Z,60.95
2023-04-19T23:16:55.752Z,61.26
2023-04-19T23:19:30.584Z,61.23
2023-04-19T23:22:04.218Z,61.73
2023-04-19T23:24:36.128Z,61.91
2023-04-19T23:27:17.719Z,62.27
2023-04-19T23:29:48.273Z,62.24
2023-04-19T23:32:22.059Z,62.75
2023-04-19T23:34:52.798Z,63.35
2023-04-19T23:37:30.740Z,63.53
2023-04-19T23:40:14.122Z,64.40
2023-04-19T23:43:04.983Z,64.69
2023-04-19T23:45:38.548Z,64.98
2023-04-19T23:48:29.245Z,65.27
2023-04-19T23:51:20.013Z,66.04
2023-04-19T23:54:11.165Z,66.74
2023-04-19T23:57:01.981Z,67.34
2023-04-19T23:59:33.246Z,67.69
